sensor_id;sensor_type;location;lat;lon;timestamp;P1;durP1;ratioP1;P2;durP2;ratioP2
66619;SDS011;53484;51.356;6.732;2023-04-24T00:02:15;2.75;;;1.00;;
66619;SDS011;53484;51.356;6.732;2023-04-24T00:04:41;3.10;;;1.00;;
66619;SDS011;53484;51.356;6.732;2023-04-24T00:07:09;2.80;;;1.25;;
66619;SDS011;53484;51.356;6.732;2023-04-24T00:09:36;4.07;;;1.00;;
66619;SDS011;53484;51.356;6.732;2023-04-24T00:12:02;3.00;;;1.10;;
66619;SDS011;53484;51.356;6.732;2023-04-24T00:14:30;3.90;;;1.30;;
66619;SDS011;53484;51.356;6.732;2023-04-24T00:16:57;7.07;;;2.50;;
66619;SDS011;53484;51.356;6.732;2023-04-24T00:19:23;3.63;;;1.13;;
66619;SDS011;53484;51.356;6.732;2023-04-24T00:21:49;2.97;;;1.33;;
66619;SDS011;53484;51.356;6.732;2023-04-24T00:24:16;4.32;;;1.13;;
66619;SDS011;53484;51.356;6.732;2023-04-24T00:26:43;3.15;;;1.20;;
66619;SDS011;53484;51.356;6.732;2023-04-24T00:29:09;3.03;;;1.40;;
66619;SDS011;53484;51.356;6.732;2023-04-24T00:31:37;3.40;;;1.80;;
66619;SDS011;53484;51.356;6.732;2023-04-24T00:34:03;3.00;;;1.48;;
66619;SDS011;53484;51.356;6.732;2023-04-24T00:36:30;3.55;;;1.50;;
66619;SDS011;53484;51.356;6.732;2023-04-24T00:38:57;3.10;;;1.30;;
66619;SDS011;53484;51.356;6.732;2023-04-24T00:41:24;4.37;;;1.47;;
66619;SDS011;53484;51.356;6.732;2023-04-24T00:43:50;3.80;;;1.48;;
66619;SDS011;53484;51.356;6.732;2023-04-24T00:46:17;5.90;;;1.67;;
66619;SDS011;53484;51.356;6.732;2023-04-24T00:48:45;6.80;;;2.17;;
66619;SDS011;53484;51.356;6.732;2023-04-24T00:51:11;5.07;;;2.80;;
66619;SDS011;53484;51.356;6.732;2023-04-24T00:53:38;8.80;;;3.93;;
66619;SDS011;53484;51.356;6.732;2023-04-24T00:56:04;8.68;;;3.80;;
66619;SDS011;53484;51.356;6.732;2023-04-24T00:58:30;7.32;;;3.67;;
66619;SDS011;53484;51.356;6.732;2023-04-24T01:00:57;8.95;;;4.57;;
66619;SDS011;53484;51.356;6.732;2023-04-24T01:03:26;9.60;;;4.32;;
66619;SDS011;53484;51.356;6.732;2023-04-24T01:05:55;10.47;;;4.87;;
66619;SDS011;53484;51.356;6.732;2023-04-24T01:08:22;7.45;;;4.35;;
66619;SDS011;53484;51.356;6.732;2023-04-24T01:10:49;10.85;;;5.95;;
66619;SDS011;53484;51.356;6.732;2023-04-24T01:13:17;8.73;;;5.05;;
66619;SDS011;53484;51.356;6.732;2023-04-24T01:15:44;10.57;;;5.15;;
66619;SDS011;53484;51.356;6.732;2023-04-24T01:18:10;9.40;;;5.00;;
66619;SDS011;53484;51.356;6.732;2023-04-24T01:20:36;8.35;;;4.72;;
66619;SDS011;53484;51.356;6.732;2023-04-24T01:23:06;8.77;;;4.88;;
66619;SDS011;53484;51.356;6.732;2023-04-24T01:25:32;8.52;;;4.03;;
66619;SDS011;53484;51.356;6.732;2023-04-24T01:27:59;7.88;;;4.07;;
66619;SDS011;53484;51.356;6.732;2023-04-24T01:30:25;6.30;;;3.57;;
66619;SDS011;53484;51.356;6.732;2023-04-24T01:32:52;8.27;;;4.07;;
66619;SDS011;53484;51.356;6.732;2023-04-24T01:35:19;9.23;;;4.88;;
66619;SDS011;53484;51.356;6.732;2023-04-24T01:37:45;8.32;;;4.90;;
66619;SDS011;53484;51.356;6.732;2023-04-24T01:40:13;7.40;;;3.83;;
66619;SDS011;53484;51.356;6.732;2023-04-24T01:42:40;9.73;;;4.73;;
66619;SDS011;53484;51.356;6.732;2023-04-24T01:45:07;7.80;;;4.20;;
66619;SDS011;53484;51.356;6.732;2023-04-24T01:47:35;8.85;;;3.70;;
66619;SDS011;53484;51.356;6.732;2023-04-24T01:50:01;6.70;;;4.47;;
66619;SDS011;53484;51.356;6.732;2023-04-24T01:52:27;9.40;;;4.75;;
66619;SDS011;53484;51.356;6.732;2023-04-24T01:54:56;9.27;;;4.83;;
66619;SDS011;53484;51.356;6.732;2023-04-24T01:57:26;9.90;;;5.53;;
66619;SDS011;53484;51.356;6.732;2023-04-24T01:59:52;10.18;;;5.10;;
66619;SDS011;53484;51.356;6.732;2023-04-24T02:02:19;14.15;;;5.70;;
66619;SDS011;53484;51.356;6.732;2023-04-24T02:04:46;12.80;;;5.82;;
66619;SDS011;53484;51.356;6.732;2023-04-24T02:07:12;10.50;;;5.83;;
66619;SDS011;53484;51.356;6.732;2023-04-24T02:09:38;11.90;;;6.15;;
66619;SDS011;53484;51.356;6.732;2023-04-24T02:12:05;14.85;;;6.20;;
66619;SDS011;53484;51.356;6.732;2023-04-24T02:14:32;14.65;;;6.95;;
66619;SDS011;53484;51.356;6.732;2023-04-24T02:16:59;19.27;;;7.38;;
66619;SDS011;53484;51.356;6.732;2023-04-24T02:19:25;15.27;;;7.00;;
66619;SDS011;53484;51.356;6.732;2023-04-24T02:21:52;15.75;;;7.28;;
66619;SDS011;53484;51.356;6.732;2023-04-24T02:24:18;15.55;;;7.13;;
66619;SDS011;53484;51.356;6.732;2023-04-24T02:26:44;14.38;;;6.88;;
66619;SDS011;53484;51.356;6.732;2023-04-24T02:29:10;13.73;;;7.35;;
66619;SDS011;53484;51.356;6.732;2023-04-24T02:31:38;13.53;;;7.80;;
66619;SDS011;53484;51.356;6.732;2023-04-24T02:34:04;20.55;;;8.32;;
66619;SDS011;53484;51.356;6.732;2023-04-24T02:36:31;17.77;;;9.13;;
66619;SDS011;53484;51.356;6.732;2023-04-24T02:38:57;16.23;;;7.35;;
66619;SDS011;53484;51.356;6.732;2023-04-24T02:41:23;16.65;;;8.25;;
66619;SDS011;53484;51.356;6.732;2023-04-24T02:43:49;18.17;;;8.20;;
66619;SDS011;53484;51.356;6.732;2023-04-24T02:46:16;17.98;;;8.95;;
66619;SDS011;53484;51.356;6.732;2023-04-24T02:48:43;16.85;;;8.30;;
66619;SDS011;53484;51.356;6.732;2023-04-24T02:51:10;19.42;;;7.05;;
66619;SDS011;53484;51.356;6.732;2023-04-24T02:53:36;20.48;;;8.15;;
66619;SDS011;53484;51.356;6.732;2023-04-24T02:56:02;16.70;;;8.77;;
66619;SDS011;53484;51.356;6.732;2023-04-24T02:58:28;17.52;;;9.05;;
66619;SDS011;53484;51.356;6.732;2023-04-24T03:00:55;15.73;;;8.80;;
66619;SDS011;53484;51.356;6.732;2023-04-24T03:03:21;18.70;;;8.73;;
66619;SDS011;53484;51.356;6.732;2023-04-24T03:05:50;20.65;;;9.40;;
66619;SDS011;53484;51.356;6.732;2023-04-24T03:08:16;17.37;;;9.20;;
66619;SDS011;53484;51.356;6.732;2023-04-24T03:10:42;21.58;;;9.85;;
66619;SDS011;53484;51.356;6.732;2023-04-24T03:13:08;20.88;;;9.65;;
66619;SDS011;53484;51.356;6.732;2023-04-24T03:15:35;21.63;;;10.98;;
66619;SDS011;53484;51.356;6.732;2023-04-24T03:18:01;26.45;;;10.30;;
66619;SDS011;53484;51.356;6.732;2023-04-24T03:20:27;17.43;;;8.27;;
66619;SDS011;53484;51.356;6.732;2023-04-24T03:22:55;21.63;;;9.98;;
66619;SDS011;53484;51.356;6.732;2023-04-24T03:25:22;24.33;;;9.18;;
66619;SDS011;53484;51.356;6.732;2023-04-24T03:27:48;21.90;;;9.68;;
66619;SDS011;53484;51.356;6.732;2023-04-24T03:30:14;23.05;;;9.70;;
66619;SDS011;53484;51.356;6.732;2023-04-24T03:32:41;25.33;;;9.77;;
66619;SDS011;53484;51.356;6.732;2023-04-24T03:35:07;19.92;;;9.63;;
66619;SDS011;53484;51.356;6.732;2023-04-24T03:37:33;18.35;;;8.70;;
66619;SDS011;53484;51.356;6.732;2023-04-24T03:40:01;17.85;;;8.73;;
66619;SDS011;53484;51.356;6.732;2023-04-24T03:42:27;18.40;;;9.43;;
66619;SDS011;53484;51.356;6.732;2023-04-24T03:44:54;19.20;;;9.63;;
66619;SDS011;53484;51.356;6.732;2023-04-24T03:47:20;18.40;;;9.32;;
66619;SDS011;53484;51.356;6.732;2023-04-24T03:49:46;18.27;;;8.38;;
66619;SDS011;53484;51.356;6.732;2023-04-24T03:52:13;18.13;;;9.00;;
66619;SDS011;53484;51.356;6.732;2023-04-24T03:54:39;20.58;;;10.35;;
66619;SDS011;53484;51.356;6.732;2023-04-24T03:57:07;21.57;;;10.10;;
66619;SDS011;53484;51.356;6.732;2023-04-24T03:59:33;19.25;;;9.60;;
66619;SDS011;53484;51.356;6.732;2023-04-24T04:01:59;20.00;;;10.18;;
66619;SDS011;53484;51.356;6.732;2023-04-24T04:04:25;19.92;;;9.27;;
66619;SDS011;53484;51.356;6.732;2023-04-24T04:06:52;17.10;;;8.98;;
66619;SDS011;53484;51.356;6.732;2023-04-24T04:09:18;18.83;;;8.43;;
66619;SDS011;53484;51.356;6.732;2023-04-24T04:11:44;17.13;;;8.57;;
66619;SDS011;53484;51.356;6.732;2023-04-24T04:14:12;17.70;;;8.93;;
66619;SDS011;53484;51.356;6.732;2023-04-24T04:16:38;19.33;;;8.93;;
66619;SDS011;53484;51.356;6.732;2023-04-24T04:19:05;16.48;;;8.85;;
66619;SDS011;53484;51.356;6.732;2023-04-24T04:21:31;17.10;;;9.00;;
66619;SDS011;53484;51.356;6.732;2023-04-24T04:23:57;16.88;;;8.45;;
66619;SDS011;53484;51.356;6.732;2023-04-24T04:26:24;17.08;;;8.75;;
66619;SDS011;53484;51.356;6.732;2023-04-24T04:28:50;15.68;;;8.68;;
66619;SDS011;53484;51.356;6.732;2023-04-24T04:31:18;18.35;;;9.63;;
66619;SDS011;53484;51.356;6.732;2023-04-24T04:33:44;19.70;;;8.70;;
66619;SDS011;53484;51.356;6.732;2023-04-24T04:36:10;14.10;;;8.68;;
66619;SDS011;53484;51.356;6.732;2023-04-24T04:38:37;16.50;;;9.25;;
66619;SDS011;53484;51.356;6.732;2023-04-24T04:41:03;15.40;;;8.20;;
66619;SDS011;53484;51.356;6.732;2023-04-24T04:43:30;16.33;;;7.93;;
66619;SDS011;53484;51.356;6.732;2023-04-24T04:45:59;14.80;;;7.53;;
66619;SDS011;53484;51.356;6.732;2023-04-24T04:48:27;14.68;;;7.97;;
66619;SDS011;53484;51.356;6.732;2023-04-24T04:50:53;14.50;;;7.40;;
66619;SDS011;53484;51.356;6.732;2023-04-24T04:53:19;13.40;;;7.57;;
66619;SDS011;53484;51.356;6.732;2023-04-24T04:55:46;15.38;;;7.60;;
66619;SDS011;53484;51.356;6.732;2023-04-24T04:58:12;12.13;;;7.40;;
66619;SDS011;53484;51.356;6.732;2023-04-24T05:00:39;13.18;;;6.78;;
66619;SDS011;53484;51.356;6.732;2023-04-24T05:03:06;14.88;;;6.93;;
66619;SDS011;53484;51.356;6.732;2023-04-24T05:05:34;12.75;;;6.50;;
66619;SDS011;53484;51.356;6.732;2023-04-24T05:08:00;14.60;;;7.95;;
66619;SDS011;53484;51.356;6.732;2023-04-24T05:10:26;14.00;;;7.87;;
66619;SDS011;53484;51.356;6.732;2023-04-24T05:12:52;18.42;;;7.85;;
66619;SDS011;53484;51.356;6.732;2023-04-24T05:15:19;19.20;;;9.15;;
66619;SDS011;53484;51.356;6.732;2023-04-24T05:17:45;16.13;;;8.90;;
66619;SDS011;53484;51.356;6.732;2023-04-24T05:20:11;16.70;;;8.90;;
66619;SDS011;53484;51.356;6.732;2023-04-24T05:22:39;20.20;;;10.40;;
66619;SDS011;53484;51.356;6.732;2023-04-24T05:25:06;17.02;;;9.30;;
66619;SDS011;53484;51.356;6.732;2023-04-24T05:27:32;17.92;;;9.70;;
66619;SDS011;53484;51.356;6.732;2023-04-24T05:29:59;18.35;;;9.43;;
66619;SDS011;53484;51.356;6.732;2023-04-24T05:32:25;16.63;;;9.13;;
66619;SDS011;53484;51.356;6.732;2023-04-24T05:34:52;16.70;;;8.93;;
66619;SDS011;53484;51.356;6.732;2023-04-24T05:37:18;17.08;;;8.05;;
66619;SDS011;53484;51.356;6.732;2023-04-24T05:39:46;17.40;;;9.85;;
66619;SDS011;53484;51.356;6.732;2023-04-24T05:42:12;14.43;;;7.93;;
66619;SDS011;53484;51.356;6.732;2023-04-24T05:44:38;16.17;;;8.15;;
66619;SDS011;53484;51.356;6.732;2023-04-24T05:47:05;14.83;;;7.93;;
66619;SDS011;53484;51.356;6.732;2023-04-24T05:49:31;13.65;;;6.60;;
66619;SDS011;53484;51.356;6.732;2023-04-24T05:51:57;14.15;;;6.70;;
66619;SDS011;53484;51.356;6.732;2023-04-24T05:54:24;13.77;;;7.32;;
66619;SDS011;53484;51.356;6.732;2023-04-24T05:56:51;13.02;;;7.55;;
66619;SDS011;53484;51.356;6.732;2023-04-24T05:59:19;12.33;;;7.20;;
66619;SDS011;53484;51.356;6.732;2023-04-24T06:01:46;12.18;;;6.60;;
66619;SDS011;53484;51.356;6.732;2023-04-24T06:04:14;15.90;;;7.35;;
66619;SDS011;53484;51.356;6.732;2023-04-24T06:06:40;14.85;;;7.45;;
66619;SDS011;53484;51.356;6.732;2023-04-24T06:09:07;14.25;;;8.10;;
66619;SDS011;53484;51.356;6.732;2023-04-24T06:11:33;17.20;;;9.07;;
66619;SDS011;53484;51.356;6.732;2023-04-24T06:14:01;16.17;;;9.27;;
66619;SDS011;53484;51.356;6.732;2023-04-24T06:16:27;17.67;;;9.80;;
66619;SDS011;53484;51.356;6.732;2023-04-24T06:18:53;15.98;;;8.25;;
66619;SDS011;53484;51.356;6.732;2023-04-24T06:21:20;17.23;;;9.00;;
66619;SDS011;53484;51.356;6.732;2023-04-24T06:23:46;14.97;;;7.93;;
66619;SDS011;53484;51.356;6.732;2023-04-24T06:26:12;13.85;;;7.22;;
66619;SDS011;53484;51.356;6.732;2023-04-24T06:28:39;14.77;;;7.40;;
66619;SDS011;53484;51.356;6.732;2023-04-24T06:31:07;16.92;;;7.68;;
66619;SDS011;53484;51.356;6.732;2023-04-24T06:33:35;13.63;;;7.95;;
66619;SDS011;53484;51.356;6.732;2023-04-24T06:36:02;14.17;;;7.37;;
66619;SDS011;53484;51.356;6.732;2023-04-24T06:38:29;11.35;;;6.82;;
66619;SDS011;53484;51.356;6.732;2023-04-24T06:40:55;12.73;;;6.80;;
66619;SDS011;53484;51.356;6.732;2023-04-24T06:43:22;12.90;;;6.38;;
66619;SDS011;53484;51.356;6.732;2023-04-24T06:45:48;11.73;;;5.43;;
66619;SDS011;53484;51.356;6.732;2023-04-24T06:48:16;10.67;;;5.23;;
66619;SDS011;53484;51.356;6.732;2023-04-24T06:50:42;14.95;;;5.32;;
66619;SDS011;53484;51.356;6.732;2023-04-24T06:53:08;12.45;;;5.60;;
66619;SDS011;53484;51.356;6.732;2023-04-24T06:55:37;11.13;;;6.18;;
66619;SDS011;53484;51.356;6.732;2023-04-24T06:58:03;12.27;;;5.93;;
66619;SDS011;53484;51.356;6.732;2023-04-24T07:00:31;12.57;;;5.80;;
66619;SDS011;53484;51.356;6.732;2023-04-24T07:02:57;10.02;;;4.85;;
66619;SDS011;53484;51.356;6.732;2023-04-24T07:05:25;10.32;;;5.55;;
66619;SDS011;53484;51.356;6.732;2023-04-24T07:07:51;10.68;;;5.65;;
66619;SDS011;53484;51.356;6.732;2023-04-24T07:10:18;11.38;;;5.53;;
66619;SDS011;53484;51.356;6.732;2023-04-24T07:12:45;9.13;;;5.33;;
66619;SDS011;53484;51.356;6.732;2023-04-24T07:15:11;10.73;;;5.05;;
66619;SDS011;53484;51.356;6.732;2023-04-24T07:17:38;7.20;;;3.47;;
66619;SDS011;53484;51.356;6.732;2023-04-24T07:20:08;7.60;;;3.47;;
66619;SDS011;53484;51.356;6.732;2023-04-24T07:22:36;7.57;;;2.90;;
66619;SDS011;53484;51.356;6.732;2023-04-24T07:25:04;4.43;;;2.03;;
66619;SDS011;53484;51.356;6.732;2023-04-24T07:27:31;6.95;;;2.40;;
66619;SDS011;53484;51.356;6.732;2023-04-24T07:29:57;5.88;;;1.85;;
66619;SDS011;53484;51.356;6.732;2023-04-24T07:32:23;3.90;;;1.08;;
66619;SDS011;53484;51.356;6.732;2023-04-24T07:34:50;4.63;;;0.98;;
66619;SDS011;53484;51.356;6.732;2023-04-24T07:37:16;3.93;;;0.97;;
66619;SDS011;53484;51.356;6.732;2023-04-24T07:39:44;7.18;;;1.02;;
66619;SDS011;53484;51.356;6.732;2023-04-24T07:42:10;2.10;;;0.80;;
66619;SDS011;53484;51.356;6.732;2023-04-24T07:44:36;4.15;;;0.80;;
66619;SDS011;53484;51.356;6.732;2023-04-24T07:47:03;3.70;;;1.13;;
66619;SDS011;53484;51.356;6.732;2023-04-24T07:49:29;4.57;;;1.50;;
66619;SDS011;53484;51.356;6.732;2023-04-24T07:51:55;3.42;;;1.38;;
66619;SDS011;53484;51.356;6.732;2023-04-24T07:54:21;3.13;;;1.42;;
66619;SDS011;53484;51.356;6.732;2023-04-24T07:56:49;3.05;;;1.30;;
66619;SDS011;53484;51.356;6.732;2023-04-24T07:59:16;4.50;;;1.40;;
66619;SDS011;53484;51.356;6.732;2023-04-24T08:01:42;3.53;;;1.30;;
66619;SDS011;53484;51.356;6.732;2023-04-24T08:04:09;5.50;;;1.80;;
66619;SDS011;53484;51.356;6.732;2023-04-24T08:06:35;5.18;;;1.73;;
66619;SDS011;53484;51.356;6.732;2023-04-24T08:09:01;6.28;;;2.17;;
66619;SDS011;53484;51.356;6.732;2023-04-24T08:11:27;4.28;;;2.00;;
66619;SDS011;53484;51.356;6.732;2023-04-24T08:13:55;5.63;;;1.90;;
66619;SDS011;53484;51.356;6.732;2023-04-24T08:16:22;5.28;;;2.15;;
66619;SDS011;53484;51.356;6.732;2023-04-24T08:18:48;5.97;;;2.70;;
66619;SDS011;53484;51.356;6.732;2023-04-24T08:21:15;4.72;;;2.28;;
66619;SDS011;53484;51.356;6.732;2023-04-24T08:23:43;5.95;;;2.47;;
66619;SDS011;53484;51.356;6.732;2023-04-24T08:26:09;4.33;;;2.20;;
66619;SDS011;53484;51.356;6.732;2023-04-24T08:28:36;4.45;;;1.85;;
66619;SDS011;53484;51.356;6.732;2023-04-24T08:31:04;3.97;;;1.20;;
66619;SDS011;53484;51.356;6.732;2023-04-24T08:33:30;3.50;;;1.60;;
66619;SDS011;53484;51.356;6.732;2023-04-24T08:35:59;3.83;;;1.40;;
66619;SDS011;53484;51.356;6.732;2023-04-24T08:38:25;4.00;;;1.50;;
66619;SDS011;53484;51.356;6.732;2023-04-24T08:40:52;3.50;;;1.73;;
66619;SDS011;53484;51.356;6.732;2023-04-24T08:43:18;4.00;;;1.98;;
66619;SDS011;53484;51.356;6.732;2023-04-24T08:45:46;6.30;;;2.08;;
66619;SDS011;53484;51.356;6.732;2023-04-24T08:48:15;6.85;;;2.00;;
66619;SDS011;53484;51.356;6.732;2023-04-24T08:50:41;4.27;;;1.90;;
66619;SDS011;53484;51.356;6.732;2023-04-24T08:53:09;10.15;;;2.88;;
66619;SDS011;53484;51.356;6.732;2023-04-24T08:55:35;5.57;;;2.45;;
66619;SDS011;53484;51.356;6.732;2023-04-24T08:58:03;5.60;;;2.47;;
66619;SDS011;53484;51.356;6.732;2023-04-24T09:00:29;8.15;;;3.08;;
66619;SDS011;53484;51.356;6.732;2023-04-24T09:02:56;10.00;;;4.33;;
66619;SDS011;53484;51.356;6.732;2023-04-24T09:05:24;16.33;;;5.20;;
66619;SDS011;53484;51.356;6.732;2023-04-24T09:07:53;13.75;;;6.22;;
66619;SDS011;53484;51.356;6.732;2023-04-24T09:10:20;11.00;;;4.45;;
66619;SDS011;53484;51.356;6.732;2023-04-24T09:12:46;8.82;;;4.53;;
66619;SDS011;53484;51.356;6.732;2023-04-24T09:15:13;18.23;;;7.30;;
66619;SDS011;53484;51.356;6.732;2023-04-24T09:17:40;16.20;;;6.95;;
66619;SDS011;53484;51.356;6.732;2023-04-24T09:20:07;11.98;;;6.10;;
66619;SDS011;53484;51.356;6.732;2023-04-24T09:22:35;18.35;;;8.27;;
66619;SDS011;53484;51.356;6.732;2023-04-24T09:25:02;31.80;;;11.10;;
66619;SDS011;53484;51.356;6.732;2023-04-24T09:27:30;25.23;;;10.80;;
66619;SDS011;53484;51.356;6.732;2023-04-24T09:29:57;20.08;;;9.10;;
66619;SDS011;53484;51.356;6.732;2023-04-24T09:32:23;19.55;;;8.85;;
66619;SDS011;53484;51.356;6.732;2023-04-24T09:35:04;19.48;;;8.88;;
66619;SDS011;53484;51.356;6.732;2023-04-24T09:37:34;23.33;;;9.15;;
66619;SDS011;53484;51.356;6.732;2023-04-24T09:40:08;17.33;;;7.77;;
66619;SDS011;53484;51.356;6.732;2023-04-24T09:42:35;26.85;;;10.27;;
66619;SDS011;53484;51.356;6.732;2023-04-24T09:45:01;27.10;;;8.63;;
66619;SDS011;53484;51.356;6.732;2023-04-24T09:47:28;25.85;;;10.32;;
66619;SDS011;53484;51.356;6.732;2023-04-24T09:50:01;27.63;;;10.82;;
66619;SDS011;53484;51.356;6.732;2023-04-24T09:52:34;27.77;;;11.10;;
66619;SDS011;53484;51.356;6.732;2023-04-24T09:55:01;21.67;;;8.60;;
66619;SDS011;53484;51.356;6.732;2023-04-24T09:57:29;18.98;;;9.05;;
66619;SDS011;53484;51.356;6.732;2023-04-24T09:59:56;17.75;;;8.25;;
66619;SDS011;53484;51.356;6.732;2023-04-24T10:02:23;24.75;;;9.48;;
66619;SDS011;53484;51.356;6.732;2023-04-24T10:04:53;18.77;;;7.90;;
66619;SDS011;53484;51.356;6.732;2023-04-24T10:07:20;26.33;;;8.23;;
66619;SDS011;53484;51.356;6.732;2023-04-24T10:09:47;21.83;;;7.40;;
66619;SDS011;53484;51.356;6.732;2023-04-24T10:12:14;18.00;;;7.85;;
66619;SDS011;53484;51.356;6.732;2023-04-24T10:14:42;20.17;;;7.40;;
66619;SDS011;53484;51.356;6.732;2023-04-24T10:17:10;15.67;;;6.57;;
66619;SDS011;53484;51.356;6.732;2023-04-24T10:19:37;15.48;;;6.18;;
66619;SDS011;53484;51.356;6.732;2023-04-24T10:22:04;18.33;;;7.25;;
66619;SDS011;53484;51.356;6.732;2023-04-24T10:24:31;18.25;;;6.07;;
66619;SDS011;53484;51.356;6.732;2023-04-24T10:26:57;19.58;;;5.28;;
66619;SDS011;53484;51.356;6.732;2023-04-24T10:29:24;17.60;;;5.63;;
66619;SDS011;53484;51.356;6.732;2023-04-24T10:31:52;15.65;;;6.05;;
66619;SDS011;53484;51.356;6.732;2023-04-24T10:34:19;16.55;;;4.97;;
66619;SDS011;53484;51.356;6.732;2023-04-24T10:36:47;20.90;;;5.82;;
66619;SDS011;53484;51.356;6.732;2023-04-24T10:39:16;20.35;;;5.90;;
66619;SDS011;53484;51.356;6.732;2023-04-24T10:41:42;25.00;;;6.40;;
66619;SDS011;53484;51.356;6.732;2023-04-24T10:44:10;25.45;;;7.03;;
66619;SDS011;53484;51.356;6.732;2023-04-24T10:46:37;20.30;;;6.10;;
66619;SDS011;53484;51.356;6.732;2023-04-24T10:49:05;15.40;;;5.68;;
66619;SDS011;53484;51.356;6.732;2023-04-24T10:51:44;17.50;;;5.78;;
66619;SDS011;53484;51.356;6.732;2023-04-24T10:54:21;15.10;;;4.37;;
66619;SDS011;53484;51.356;6.732;2023-04-24T10:56:47;20.80;;;6.50;;
66619;SDS011;53484;51.356;6.732;2023-04-24T10:59:18;16.65;;;5.88;;
66619;SDS011;53484;51.356;6.732;2023-04-24T11:01:52;17.23;;;5.90;;
66619;SDS011;53484;51.356;6.732;2023-04-24T11:04:28;17.77;;;6.13;;
66619;SDS011;53484;51.356;6.732;2023-04-24T11:06:57;21.47;;;6.50;;
66619;SDS011;53484;51.356;6.732;2023-04-24T11:09:26;21.75;;;6.35;;
66619;SDS011;53484;51.356;6.732;2023-04-24T11:11:53;17.05;;;5.80;;
66619;SDS011;53484;51.356;6.732;2023-04-24T11:14:28;14.27;;;5.30;;
66619;SDS011;53484;51.356;6.732;2023-04-24T11:16:54;17.58;;;5.38;;
66619;SDS011;53484;51.356;6.732;2023-04-24T11:19:22;11.80;;;5.33;;
66619;SDS011;53484;51.356;6.732;2023-04-24T11:21:56;17.45;;;5.78;;
66619;SDS011;53484;51.356;6.732;2023-04-24T11:24:25;13.48;;;5.20;;
66619;SDS011;53484;51.356;6.732;2023-04-24T11:26:51;15.27;;;4.80;;
66619;SDS011;53484;51.356;6.732;2023-04-24T11:29:19;13.00;;;4.03;;
66619;SDS011;53484;51.356;6.732;2023-04-24T11:31:46;11.60;;;3.83;;
66619;SDS011;53484;51.356;6.732;2023-04-24T11:34:14;8.18;;;3.60;;
66619;SDS011;53484;51.356;6.732;2023-04-24T11:36:42;9.25;;;3.60;;
66619;SDS011;53484;51.356;6.732;2023-04-24T11:39:10;13.23;;;3.47;;
66619;SDS011;53484;51.356;6.732;2023-04-24T11:41:37;10.18;;;3.58;;
66619;SDS011;53484;51.356;6.732;2023-04-24T11:44:06;9.60;;;2.77;;
66619;SDS011;53484;51.356;6.732;2023-04-24T11:46:32;10.07;;;2.90;;
66619;SDS011;53484;51.356;6.732;2023-04-24T11:48:59;11.65;;;3.90;;
66619;SDS011;53484;51.356;6.732;2023-04-24T11:51:26;9.60;;;3.10;;
66619;SDS011;53484;51.356;6.732;2023-04-24T11:53:52;9.43;;;3.03;;
66619;SDS011;53484;51.356;6.732;2023-04-24T11:56:20;12.00;;;3.20;;
66619;SDS011;53484;51.356;6.732;2023-04-24T11:58:47;11.05;;;2.85;;
66619;SDS011;53484;51.356;6.732;2023-04-24T12:01:13;7.45;;;2.45;;
66619;SDS011;53484;51.356;6.732;2023-04-24T12:03:40;10.57;;;2.65;;
66619;SDS011;53484;51.356;6.732;2023-04-24T12:06:08;10.75;;;2.45;;
66619;SDS011;53484;51.356;6.732;2023-04-24T12:08:36;12.33;;;3.00;;
66619;SDS011;53484;51.356;6.732;2023-04-24T12:11:03;13.48;;;2.97;;
66619;SDS011;53484;51.356;6.732;2023-04-24T12:13:31;11.32;;;3.08;;
66619;SDS011;53484;51.356;6.732;2023-04-24T12:15:57;11.07;;;2.35;;
66619;SDS011;53484;51.356;6.732;2023-04-24T12:18:24;11.43;;;2.75;;
66619;SDS011;53484;51.356;6.732;2023-04-24T12:20:50;11.20;;;2.57;;
66619;SDS011;53484;51.356;6.732;2023-04-24T12:23:32;9.57;;;2.10;;
66619;SDS011;53484;51.356;6.732;2023-04-24T12:26:00;10.63;;;2.63;;
66619;SDS011;53484;51.356;6.732;2023-04-24T12:28:33;9.82;;;2.58;;
66619;SDS011;53484;51.356;6.732;2023-04-24T12:31:01;13.82;;;2.83;;
66619;SDS011;53484;51.356;6.732;2023-04-24T12:33:28;6.90;;;2.00;;
66619;SDS011;53484;51.356;6.732;2023-04-24T12:35:58;9.73;;;2.13;;
66619;SDS011;53484;51.356;6.732;2023-04-24T12:38:25;7.88;;;2.10;;
66619;SDS011;53484;51.356;6.732;2023-04-24T12:41:01;8.18;;;2.30;;
66619;SDS011;53484;51.356;6.732;2023-04-24T12:43:27;6.35;;;2.40;;
66619;SDS011;53484;51.356;6.732;2023-04-24T12:45:54;6.63;;;1.87;;
66619;SDS011;53484;51.356;6.732;2023-04-24T12:48:22;10.15;;;2.78;;
66619;SDS011;53484;51.356;6.732;2023-04-24T12:50:48;11.10;;;1.95;;
66619;SDS011;53484;51.356;6.732;2023-04-24T12:53:15;7.93;;;2.13;;
66619;SDS011;53484;51.356;6.732;2023-04-24T12:55:45;8.45;;;2.10;;
66619;SDS011;53484;51.356;6.732;2023-04-24T12:58:17;8.77;;;2.17;;
66619;SDS011;53484;51.356;6.732;2023-04-24T13:00:43;10.27;;;2.40;;
66619;SDS011;53484;51.356;6.732;2023-04-24T13:03:10;4.90;;;1.48;;
66619;SDS011;53484;51.356;6.732;2023-04-24T13:05:38;7.25;;;1.50;;
66619;SDS011;53484;51.356;6.732;2023-04-24T13:08:05;8.77;;;1.70;;
66619;SDS011;53484;51.356;6.732;2023-04-24T13:10:31;6.93;;;1.67;;
66619;SDS011;53484;51.356;6.732;2023-04-24T13:12:57;6.93;;;1.67;;
66619;SDS011;53484;51.356;6.732;2023-04-24T13:15:24;5.22;;;1.42;;
66619;SDS011;53484;51.356;6.732;2023-04-24T13:17:51;6.28;;;1.95;;
66619;SDS011;53484;51.356;6.732;2023-04-24T13:20:18;5.38;;;1.80;;
66619;SDS011;53484;51.356;6.732;2023-04-24T13:22:45;5.37;;;1.67;;
66619;SDS011;53484;51.356;6.732;2023-04-24T13:25:12;3.90;;;1.60;;
66619;SDS011;53484;51.356;6.732;2023-04-24T13:27:41;6.05;;;1.95;;
66619;SDS011;53484;51.356;6.732;2023-04-24T13:30:08;5.35;;;1.60;;
66619;SDS011;53484;51.356;6.732;2023-04-24T13:32:35;5.43;;;1.70;;
66619;SDS011;53484;51.356;6.732;2023-04-24T13:35:02;5.97;;;2.07;;
66619;SDS011;53484;51.356;6.732;2023-04-24T13:37:28;8.63;;;3.17;;
66619;SDS011;53484;51.356;6.732;2023-04-24T13:39:56;6.88;;;2.25;;
66619;SDS011;53484;51.356;6.732;2023-04-24T13:42:22;3.88;;;1.60;;
66619;SDS011;53484;51.356;6.732;2023-04-24T13:44:48;3.92;;;0.90;;
66619;SDS011;53484;51.356;6.732;2023-04-24T13:47:16;4.97;;;1.67;;
66619;SDS011;53484;51.356;6.732;2023-04-24T13:49:42;3.80;;;0.90;;
66619;SDS011;53484;51.356;6.732;2023-04-24T13:52:08;4.15;;;1.40;;
66619;SDS011;53484;51.356;6.732;2023-04-24T13:54:35;5.45;;;1.55;;
66619;SDS011;53484;51.356;6.732;2023-04-24T13:57:03;2.10;;;0.80;;
66619;SDS011;53484;51.356;6.732;2023-04-24T13:59:29;7.03;;;2.17;;
66619;SDS011;53484;51.356;6.732;2023-04-24T14:01:57;4.75;;;1.95;;
66619;SDS011;53484;51.356;6.732;2023-04-24T14:04:23;6.90;;;1.70;;
66619;SDS011;53484;51.356;6.732;2023-04-24T14:06:49;5.70;;;1.98;;
66619;SDS011;53484;51.356;6.732;2023-04-24T14:09:16;6.05;;;2.40;;
66619;SDS011;53484;51.356;6.732;2023-04-24T14:11:42;5.40;;;1.77;;
66619;SDS011;53484;51.356;6.732;2023-04-24T14:14:10;6.53;;;1.70;;
66619;SDS011;53484;51.356;6.732;2023-04-24T14:16:36;3.95;;;1.42;;
66619;SDS011;53484;51.356;6.732;2023-04-24T14:19:04;8.10;;;2.28;;
66619;SDS011;53484;51.356;6.732;2023-04-24T14:21:31;6.68;;;2.33;;
66619;SDS011;53484;51.356;6.732;2023-04-24T14:23:57;9.07;;;2.03;;
66619;SDS011;53484;51.356;6.732;2023-04-24T14:26:23;5.15;;;1.27;;
66619;SDS011;53484;51.356;6.732;2023-04-24T14:28:51;3.42;;;1.00;;
66619;SDS011;53484;51.356;6.732;2023-04-24T14:31:21;4.10;;;1.38;;
66619;SDS011;53484;51.356;6.732;2023-04-24T14:33:47;4.93;;;1.23;;
66619;SDS011;53484;51.356;6.732;2023-04-24T14:36:14;3.40;;;0.90;;
66619;SDS011;53484;51.356;6.732;2023-04-24T14:38:40;5.55;;;1.30;;